sensor_id;sensor_type;location;lat;lon;timestamp;P1;durP1;ratioP1;P2;durP2;ratioP2
49502;SDS011;35409;48.776;9.204;2022-12-07T00:02:15;12.38;;;7.97;;
49502;SDS011;35409;48.776;9.204;2022-12-07T00:04:41;12.68;;;8.40;;
49502;SDS011;35409;48.776;9.204;2022-12-07T00:07:06;12.18;;;7.82;;
49502;SDS011;35409;48.776;9.204;2022-12-07T00:09:32;13.32;;;8.02;;
49502;SDS011;35409;48.776;9.204;2022-12-07T00:11:58;11.07;;;8.15;;
49502;SDS011;35409;48.776;9.204;2022-12-07T00:14:23;14.40;;;8.65;;
49502;SDS011;35409;48.776;9.204;2022-12-07T00:16:50;14.60;;;9.20;;
49502;SDS011;35409;48.776;9.204;2022-12-07T00:19:16;15.13;;;9.20;;
49502;SDS011;35409;48.776;9.204;2022-12-07T00:21:43;14.82;;;9.48;;
49502;SDS011;35409;48.776;9.204;2022-12-07T00:24:09;12.63;;;9.05;;
49502;SDS011;35409;48.776;9.204;2022-12-07T00:26:36;11.27;;;8.95;;
49502;SDS011;35409;48.776;9.204;2022-12-07T00:29:04;12.43;;;9.15;;
49502;SDS011;35409;48.776;9.204;2022-12-07T00:31:33;15.10;;;8.93;;
49502;SDS011;35409;48.776;9.204;2022-12-07T00:34:03;11.60;;;8.48;;
49502;SDS011;35409;48.776;9.204;2022-12-07T00:36:30;13.40;;;9.60;;
49502;SDS011;35409;48.776;9.204;2022-12-07T00:38:56;13.45;;;9.02;;
49502;SDS011;35409;48.776;9.204;2022-12-07T00:41:23;13.35;;;9.60;;
49502;SDS011;35409;48.776;9.204;2022-12-07T00:43:50;13.18;;;9.45;;
49502;SDS011;35409;48.776;9.204;2022-12-07T00:46:17;12.98;;;9.30;;
49502;SDS011;35409;48.776;9.204;2022-12-07T00:48:43;12.30;;;8.98;;
49502;SDS011;35409;48.776;9.204;2022-12-07T00:51:09;14.63;;;9.52;;
49502;SDS011;35409;48.776;9.204;2022-12-07T00:53:36;14.65;;;9.23;;
49502;SDS011;35409;48.776;9.204;2022-12-07T00:56:06;13.45;;;9.25;;
49502;SDS011;35409;48.776;9.204;2022-12-07T00:58:33;15.23;;;9.95;;
49502;SDS011;35409;48.776;9.204;2022-12-07T01:01:01;14.23;;;9.52;;
49502;SDS011;35409;48.776;9.204;2022-12-07T01:05:54;16.23;;;10.20;;
49502;SDS011;35409;48.776;9.204;2022-12-07T01:08:21;15.65;;;10.05;;
49502;SDS011;35409;48.776;9.204;2022-12-07T01:10:48;14.27;;;10.48;;
49502;SDS011;35409;48.776;9.204;2022-12-07T01:13:15;15.60;;;10.15;;
49502;SDS011;35409;48.776;9.204;2022-12-07T01:15:41;14.10;;;10.30;;
49502;SDS011;35409;48.776;9.204;2022-12-07T01:18:08;14.23;;;10.00;;
49502;SDS011;35409;48.776;9.204;2022-12-07T01:20:34;18.40;;;11.45;;
49502;SDS011;35409;48.776;9.204;2022-12-07T01:23:00;14.60;;;9.93;;
49502;SDS011;35409;48.776;9.204;2022-12-07T01:25:25;17.20;;;9.40;;
49502;SDS011;35409;48.776;9.204;2022-12-07T01:27:51;16.50;;;10.50;;
49502;SDS011;35409;48.776;9.204;2022-12-07T01:30:16;18.75;;;11.75;;
49502;SDS011;35409;48.776;9.204;2022-12-07T01:32:42;15.45;;;10.10;;
49502;SDS011;35409;48.776;9.204;2022-12-07T01:35:08;16.77;;;10.25;;
49502;SDS011;35409;48.776;9.204;2022-12-07T01:37:37;15.68;;;10.52;;
49502;SDS011;35409;48.776;9.204;2022-12-07T01:40:04;16.88;;;11.45;;
49502;SDS011;35409;48.776;9.204;2022-12-07T01:42:31;16.38;;;11.10;;
49502;SDS011;35409;48.776;9.204;2022-12-07T01:48:03;17.92;;;11.35;;
49502;SDS011;35409;48.776;9.204;2022-12-07T01:50:30;15.95;;;10.15;;
49502;SDS011;35409;48.776;9.204;2022-12-07T01:52:56;17.27;;;11.27;;
49502;SDS011;35409;48.776;9.204;2022-12-07T01:55:26;17.08;;;10.95;;
49502;SDS011;35409;48.776;9.204;2022-12-07T01:57:52;15.18;;;10.10;;
49502;SDS011;35409;48.776;9.204;2022-12-07T02:00:20;14.35;;;10.00;;
49502;SDS011;35409;48.776;9.204;2022-12-07T02:02:53;14.25;;;9.80;;
49502;SDS011;35409;48.776;9.204;2022-12-07T02:05:28;18.42;;;11.05;;
49502;SDS011;35409;48.776;9.204;2022-12-07T02:07:55;15.18;;;10.18;;
49502;SDS011;35409;48.776;9.204;2022-12-07T02:10:26;14.98;;;9.38;;
49502;SDS011;35409;48.776;9.204;2022-12-07T02:12:56;15.52;;;9.75;;
49502;SDS011;35409;48.776;9.204;2022-12-07T02:15:45;16.52;;;9.68;;
49502;SDS011;35409;48.776;9.204;2022-12-07T02:18:21;16.05;;;10.30;;
49502;SDS011;35409;48.776;9.204;2022-12-07T02:29:27;21.00;;;11.43;;
49502;SDS011;35409;48.776;9.204;2022-12-07T02:32:04;17.23;;;10.80;;
49502;SDS011;35409;48.776;9.204;2022-12-07T02:34:50;16.10;;;10.35;;
49502;SDS011;35409;48.776;9.204;2022-12-07T02:37:47;15.73;;;10.38;;
49502;SDS011;35409;48.776;9.204;2022-12-07T02:40:26;17.35;;;11.30;;
49502;SDS011;35409;48.776;9.204;2022-12-07T02:43:10;14.10;;;10.20;;
49502;SDS011;35409;48.776;9.204;2022-12-07T02:45:41;17.25;;;10.40;;
49502;SDS011;35409;48.776;9.204;2022-12-07T02:48:08;15.13;;;10.20;;
49502;SDS011;35409;48.776;9.204;2022-12-07T02:50:36;16.90;;;10.13;;
49502;SDS011;35409;48.776;9.204;2022-12-07T02:53:02;17.10;;;10.80;;
49502;SDS011;35409;48.776;9.204;2022-12-07T02:55:28;17.23;;;10.55;;
49502;SDS011;35409;48.776;9.204;2022-12-07T02:58:18;15.05;;;10.10;;
49502;SDS011;35409;48.776;9.204;2022-12-07T03:01:17;15.23;;;10.27;;
49502;SDS011;35409;48.776;9.204;2022-12-07T03:04:17;15.02;;;9.90;;
49502;SDS011;35409;48.776;9.204;2022-12-07T03:06:56;15.13;;;10.38;;
49502;SDS011;35409;48.776;9.204;2022-12-07T03:09:39;16.10;;;10.18;;
49502;SDS011;35409;48.776;9.204;2022-12-07T03:12:15;14.65;;;10.15;;
49502;SDS011;35409;48.776;9.204;2022-12-07T03:14:46;19.23;;;11.30;;
49502;SDS011;35409;48.776;9.204;2022-12-07T03:17:26;15.38;;;10.25;;
49502;SDS011;35409;48.776;9.204;2022-12-07T03:19:57;16.88;;;10.18;;
49502;SDS011;35409;48.776;9.204;2022-12-07T03:22:25;16.80;;;10.13;;
49502;SDS011;35409;48.776;9.204;2022-12-07T03:25:00;15.68;;;10.18;;
49502;SDS011;35409;48.776;9.204;2022-12-07T03:27:31;14.35;;;9.95;;
49502;SDS011;35409;48.776;9.204;2022-12-07T03:30:05;15.68;;;9.45;;
49502;SDS011;35409;48.776;9.204;2022-12-07T03:32:58;17.08;;;10.45;;
49502;SDS011;35409;48.776;9.204;2022-12-07T03:35:35;17.25;;;10.45;;
49502;SDS011;35409;48.776;9.204;2022-12-07T03:38:20;17.13;;;10.35;;
49502;SDS011;35409;48.776;9.204;2022-12-07T03:40:54;14.82;;;9.63;;
49502;SDS011;35409;48.776;9.204;2022-12-07T03:43:25;15.55;;;9.38;;
49502;SDS011;35409;48.776;9.204;2022-12-07T03:46:14;16.98;;;10.48;;
49502;SDS011;35409;48.776;9.204;2022-12-07T03:54:21;19.38;;;11.35;;
49502;SDS011;35409;48.776;9.204;2022-12-07T03:56:55;14.38;;;9.40;;
49502;SDS011;35409;48.776;9.204;2022-12-07T03:59:22;17.15;;;10.07;;
49502;SDS011;35409;48.776;9.204;2022-12-07T04:01:56;17.55;;;10.05;;
49502;SDS011;35409;48.776;9.204;2022-12-07T04:04:26;14.13;;;9.90;;
49502;SDS011;35409;48.776;9.204;2022-12-07T04:06:52;15.90;;;9.80;;
49502;SDS011;35409;48.776;9.204;2022-12-07T04:09:18;16.27;;;10.27;;
49502;SDS011;35409;48.776;9.204;2022-12-07T04:11:44;15.23;;;9.95;;
49502;SDS011;35409;48.776;9.204;2022-12-07T04:14:10;14.88;;;9.98;;
49502;SDS011;35409;48.776;9.204;2022-12-07T04:21:41;15.70;;;9.50;;
49502;SDS011;35409;48.776;9.204;2022-12-07T04:24:07;16.58;;;9.63;;
49502;SDS011;35409;48.776;9.204;2022-12-07T04:26:32;13.98;;;8.98;;
49502;SDS011;35409;48.776;9.204;2022-12-07T04:28:58;15.93;;;9.85;;
49502;SDS011;35409;48.776;9.204;2022-12-07T04:31:24;15.18;;;8.73;;
49502;SDS011;35409;48.776;9.204;2022-12-07T04:33:49;18.60;;;9.18;;
49502;SDS011;35409;48.776;9.204;2022-12-07T04:36:15;13.27;;;8.68;;
49502;SDS011;35409;48.776;9.204;2022-12-07T04:38:41;13.00;;;8.32;;
49502;SDS011;35409;48.776;9.204;2022-12-07T04:41:07;14.60;;;8.65;;
49502;SDS011;35409;48.776;9.204;2022-12-07T04:43:34;9.65;;;6.57;;
49502;SDS011;35409;48.776;9.204;2022-12-07T04:46:00;11.13;;;6.85;;
49502;SDS011;35409;48.776;9.204;2022-12-07T04:48:25;10.93;;;6.78;;
49502;SDS011;35409;48.776;9.204;2022-12-07T04:50:51;11.27;;;6.60;;
49502;SDS011;35409;48.776;9.204;2022-12-07T04:53:17;10.13;;;6.68;;
49502;SDS011;35409;48.776;9.204;2022-12-07T04:55:43;9.35;;;5.45;;
49502;SDS011;35409;48.776;9.204;2022-12-07T04:58:10;8.43;;;6.00;;
49502;SDS011;35409;48.776;9.204;2022-12-07T05:00:35;10.98;;;5.82;;
49502;SDS011;35409;48.776;9.204;2022-12-07T05:03:01;8.82;;;5.47;;
49502;SDS011;35409;48.776;9.204;2022-12-07T05:05:27;7.40;;;4.80;;
49502;SDS011;35409;48.776;9.204;2022-12-07T05:07:52;6.50;;;4.18;;
49502;SDS011;35409;48.776;9.204;2022-12-07T05:10:18;5.78;;;3.90;;
49502;SDS011;35409;48.776;9.204;2022-12-07T05:12:44;5.53;;;3.75;;
49502;SDS011;35409;48.776;9.204;2022-12-07T05:15:10;4.47;;;3.03;;
49502;SDS011;35409;48.776;9.204;2022-12-07T05:17:36;4.78;;;3.45;;
49502;SDS011;35409;48.776;9.204;2022-12-07T05:20:02;7.45;;;4.30;;
49502;SDS011;35409;48.776;9.204;2022-12-07T05:22:29;6.85;;;4.20;;
49502;SDS011;35409;48.776;9.204;2022-12-07T05:24:55;6.90;;;4.15;;
49502;SDS011;35409;48.776;9.204;2022-12-07T05:27:20;7.55;;;4.18;;
49502;SDS011;35409;48.776;9.204;2022-12-07T05:29:46;5.45;;;3.95;;
49502;SDS011;35409;48.776;9.204;2022-12-07T05:32:12;7.10;;;4.75;;
49502;SDS011;35409;48.776;9.204;2022-12-07T05:34:37;10.07;;;6.28;;
49502;SDS011;35409;48.776;9.204;2022-12-07T05:37:03;9.30;;;6.32;;
49502;SDS011;35409;48.776;9.204;2022-12-07T05:39:29;12.70;;;7.90;;
49502;SDS011;35409;48.776;9.204;2022-12-07T05:41:54;13.93;;;8.50;;
49502;SDS011;35409;48.776;9.204;2022-12-07T05:44:38;15.38;;;9.18;;
49502;SDS011;35409;48.776;9.204;2022-12-07T05:47:05;14.95;;;8.88;;
49502;SDS011;35409;48.776;9.204;2022-12-07T05:49:31;13.43;;;8.93;;
49502;SDS011;35409;48.776;9.204;2022-12-07T05:51:57;18.27;;;9.32;;
49502;SDS011;35409;48.776;9.204;2022-12-07T05:54:23;14.52;;;9.25;;
49502;SDS011;35409;48.776;9.204;2022-12-07T05:56:49;14.98;;;9.70;;
49502;SDS011;35409;48.776;9.204;2022-12-07T05:59:14;14.93;;;9.63;;
49502;SDS011;35409;48.776;9.204;2022-12-07T06:04:16;17.73;;;9.02;;
49502;SDS011;35409;48.776;9.204;2022-12-07T06:06:43;13.77;;;8.82;;
49502;SDS011;35409;48.776;9.204;2022-12-07T06:09:08;14.85;;;9.02;;
49502;SDS011;35409;48.776;9.204;2022-12-07T06:11:34;13.65;;;8.45;;
49502;SDS011;35409;48.776;9.204;2022-12-07T06:14:18;13.00;;;8.55;;
49502;SDS011;35409;48.776;9.204;2022-12-07T06:16:44;16.85;;;9.57;;
49502;SDS011;35409;48.776;9.204;2022-12-07T06:19:10;18.25;;;10.43;;
49502;SDS011;35409;48.776;9.204;2022-12-07T06:21:36;17.95;;;10.23;;
49502;SDS011;35409;48.776;9.204;2022-12-07T06:24:01;16.13;;;9.57;;
49502;SDS011;35409;48.776;9.204;2022-12-07T06:26:27;17.35;;;9.75;;
49502;SDS011;35409;48.776;9.204;2022-12-07T06:28:53;16.48;;;9.48;;
49502;SDS011;35409;48.776;9.204;2022-12-07T06:31:18;17.55;;;10.52;;
49502;SDS011;35409;48.776;9.204;2022-12-07T06:33:44;18.10;;;10.18;;
49502;SDS011;35409;48.776;9.204;2022-12-07T06:36:10;16.17;;;9.55;;
49502;SDS011;35409;48.776;9.204;2022-12-07T06:38:36;16.00;;;9.52;;
49502;SDS011;35409;48.776;9.204;2022-12-07T06:41:02;17.17;;;9.10;;
49502;SDS011;35409;48.776;9.204;2022-12-07T06:43:28;19.15;;;9.80;;
49502;SDS011;35409;48.776;9.204;2022-12-07T06:45:54;22.52;;;11.70;;
49502;SDS011;35409;48.776;9.204;2022-12-07T06:48:19;20.33;;;11.25;;
49502;SDS011;35409;48.776;9.204;2022-12-07T06:50:45;17.60;;;10.80;;
49502;SDS011;35409;48.776;9.204;2022-12-07T06:53:11;15.70;;;9.43;;
49502;SDS011;35409;48.776;9.204;2022-12-07T06:55:36;13.52;;;9.02;;
49502;SDS011;35409;48.776;9.204;2022-12-07T06:58:02;17.63;;;8.90;;
49502;SDS011;35409;48.776;9.204;2022-12-07T07:00:28;13.63;;;8.18;;
49502;SDS011;35409;48.776;9.204;2022-12-07T07:02:54;11.60;;;7.22;;
49502;SDS011;35409;48.776;9.204;2022-12-07T07:05:20;14.52;;;7.78;;
49502;SDS011;35409;48.776;9.204;2022-12-07T07:07:47;12.82;;;7.30;;
49502;SDS011;35409;48.776;9.204;2022-12-07T07:10:13;10.80;;;6.57;;
49502;SDS011;35409;48.776;9.204;2022-12-07T07:12:39;11.68;;;7.00;;
49502;SDS011;35409;48.776;9.204;2022-12-07T07:15:05;12.77;;;7.55;;
49502;SDS011;35409;48.776;9.204;2022-12-07T07:17:31;10.77;;;6.57;;
49502;SDS011;35409;48.776;9.204;2022-12-07T07:19:57;12.68;;;6.90;;
49502;SDS011;35409;48.776;9.204;2022-12-07T07:22:23;11.43;;;7.25;;
49502;SDS011;35409;48.776;9.204;2022-12-07T07:24:48;10.27;;;6.35;;
49502;SDS011;35409;48.776;9.204;2022-12-07T07:27:14;16.00;;;6.57;;
49502;SDS011;35409;48.776;9.204;2022-12-07T07:29:39;10.73;;;6.32;;
49502;SDS011;35409;48.776;9.204;2022-12-07T07:32:05;9.18;;;5.28;;
49502;SDS011;35409;48.776;9.204;2022-12-07T07:34:32;8.50;;;5.50;;
49502;SDS011;35409;48.776;9.204;2022-12-07T07:36:58;7.22;;;5.07;;
49502;SDS011;35409;48.776;9.204;2022-12-07T07:39:25;8.93;;;5.43;;
49502;SDS011;35409;48.776;9.204;2022-12-07T07:41:50;8.05;;;5.13;;
49502;SDS011;35409;48.776;9.204;2022-12-07T07:44:16;8.55;;;5.53;;
49502;SDS011;35409;48.776;9.204;2022-12-07T07:46:41;8.25;;;5.50;;
49502;SDS011;35409;48.776;9.204;2022-12-07T07:49:08;8.43;;;5.20;;
49502;SDS011;35409;48.776;9.204;2022-12-07T07:51:35;12.68;;;5.30;;
49502;SDS011;35409;48.776;9.204;2022-12-07T07:54:00;10.38;;;5.30;;
49502;SDS011;35409;48.776;9.204;2022-12-07T07:56:26;8.70;;;5.20;;
49502;SDS011;35409;48.776;9.204;2022-12-07T07:58:52;8.60;;;5.30;;
49502;SDS011;35409;48.776;9.204;2022-12-07T08:01:18;6.22;;;4.50;;
49502;SDS011;35409;48.776;9.204;2022-12-07T08:03:45;7.93;;;4.68;;
49502;SDS011;35409;48.776;9.204;2022-12-07T08:06:11;8.55;;;4.95;;
49502;SDS011;35409;48.776;9.204;2022-12-07T08:08:37;9.23;;;5.38;;
49502;SDS011;35409;48.776;9.204;2022-12-07T08:11:06;8.88;;;5.78;;
49502;SDS011;35409;48.776;9.204;2022-12-07T08:13:33;7.20;;;4.78;;
49502;SDS011;35409;48.776;9.204;2022-12-07T08:16:02;8.98;;;5.93;;
49502;SDS011;35409;48.776;9.204;2022-12-07T08:18:29;9.63;;;5.03;;
49502;SDS011;35409;48.776;9.204;2022-12-07T08:21:01;8.13;;;5.22;;
49502;SDS011;35409;48.776;9.204;2022-12-07T08:23:27;7.07;;;5.32;;
49502;SDS011;35409;48.776;9.204;2022-12-07T08:25:53;7.40;;;5.35;;
49502;SDS011;35409;48.776;9.204;2022-12-07T08:28:18;7.35;;;5.35;;
49502;SDS011;35409;48.776;9.204;2022-12-07T08:30:44;10.27;;;5.78;;
49502;SDS011;35409;48.776;9.204;2022-12-07T08:33:10;7.50;;;5.47;;
49502;SDS011;35409;48.776;9.204;2022-12-07T08:35:36;8.45;;;5.50;;
49502;SDS011;35409;48.776;9.204;2022-12-07T08:38:02;8.95;;;5.30;;
49502;SDS011;35409;48.776;9.204;2022-12-07T08:40:28;8.05;;;5.43;;
49502;SDS011;35409;48.776;9.204;2022-12-07T08:42:54;10.13;;;5.57;;
49502;SDS011;35409;48.776;9.204;2022-12-07T08:45:20;10.32;;;5.60;;
49502;SDS011;35409;48.776;9.204;2022-12-07T08:48:01;7.65;;;5.20;;
49502;SDS011;35409;48.776;9.204;2022-12-07T08:50:31;10.02;;;5.82;;
49502;SDS011;35409;48.776;9.204;2022-12-07T08:52:58;8.23;;;5.07;;
49502;SDS011;35409;48.776;9.204;2022-12-07T08:55:24;9.50;;;5.70;;
49502;SDS011;35409;48.776;9.204;2022-12-07T08:57:52;9.57;;;4.88;;
49502;SDS011;35409;48.776;9.204;2022-12-07T09:00:18;10.25;;;5.38;;
49502;SDS011;35409;48.776;9.204;2022-12-07T09:02:44;8.50;;;5.32;;
49502;SDS011;35409;48.776;9.204;2022-12-07T09:05:10;9.02;;;6.18;;
49502;SDS011;35409;48.776;9.204;2022-12-07T09:07:36;10.95;;;5.40;;
49502;SDS011;35409;48.776;9.204;2022-12-07T09:10:05;13.40;;;6.15;;
49502;SDS011;35409;48.776;9.204;2022-12-07T09:12:31;7.72;;;5.05;;
49502;SDS011;35409;48.776;9.204;2022-12-07T09:14:57;9.98;;;5.47;;
49502;SDS011;35409;48.776;9.204;2022-12-07T09:17:22;8.43;;;5.25;;
49502;SDS011;35409;48.776;9.204;2022-12-07T09:19:48;8.10;;;4.72;;
49502;SDS011;35409;48.776;9.204;2022-12-07T09:22:14;8.48;;;4.68;;
49502;SDS011;35409;48.776;9.204;2022-12-07T09:24:39;8.23;;;5.30;;
49502;SDS011;35409;48.776;9.204;2022-12-07T09:27:05;6.55;;;4.70;;
49502;SDS011;35409;48.776;9.204;2022-12-07T09:29:31;9.25;;;5.22;;
49502;SDS011;35409;48.776;9.204;2022-12-07T09:31:56;7.20;;;4.75;;
49502;SDS011;35409;48.776;9.204;2022-12-07T09:34:22;6.25;;;4.43;;
49502;SDS011;35409;48.776;9.204;2022-12-07T09:36:47;8.85;;;4.68;;
49502;SDS011;35409;48.776;9.204;2022-12-07T09:39:13;6.35;;;4.80;;
49502;SDS011;35409;48.776;9.204;2022-12-07T09:41:42;8.80;;;4.35;;
49502;SDS011;35409;48.776;9.204;2022-12-07T09:44:10;7.30;;;4.88;;
49502;SDS011;35409;48.776;9.204;2022-12-07T09:46:39;8.68;;;4.90;;
49502;SDS011;35409;48.776;9.204;2022-12-07T09:49:11;9.82;;;4.53;;
49502;SDS011;35409;48.776;9.204;2022-12-07T09:51:41;8.15;;;4.30;;
49502;SDS011;35409;48.776;9.204;2022-12-07T09:54:07;6.20;;;4.30;;
49502;SDS011;35409;48.776;9.204;2022-12-07T09:56:37;6.22;;;3.95;;
49502;SDS011;35409;48.776;9.204;2022-12-07T09:59:03;8.27;;;4.95;;
49502;SDS011;35409;48.776;9.204;2022-12-07T10:01:32;6.88;;;4.10;;
49502;SDS011;35409;48.776;9.204;2022-12-07T10:04:08;5.35;;;4.05;;
49502;SDS011;35409;48.776;9.204;2022-12-07T10:06:41;6.50;;;3.35;;
49502;SDS011;35409;48.776;9.204;2022-12-07T10:09:17;4.93;;;3.42;;
49502;SDS011;35409;48.776;9.204;2022-12-07T10:14:27;6.38;;;3.30;;
49502;SDS011;35409;48.776;9.204;2022-12-07T10:16:54;8.45;;;3.83;;
49502;SDS011;35409;48.776;9.204;2022-12-07T10:22:07;7.22;;;4.03;;
49502;SDS011;35409;48.776;9.204;2022-12-07T10:24:42;6.10;;;4.00;;
49502;SDS011;35409;48.776;9.204;2022-12-07T10:27:21;4.20;;;3.08;;
49502;SDS011;35409;48.776;9.204;2022-12-07T10:29:53;5.68;;;3.10;;
49502;SDS011;35409;48.776;9.204;2022-12-07T10:34:45;3.83;;;2.88;;
49502;SDS011;35409;48.776;9.204;2022-12-07T10:39:43;4.63;;;3.08;;
49502;SDS011;35409;48.776;9.204;2022-12-07T10:42:24;4.63;;;3.05;;
49502;SDS011;35409;48.776;9.204;2022-12-07T10:45:07;4.28;;;2.22;;
49502;SDS011;35409;48.776;9.204;2022-12-07T10:50:52;4.25;;;2.90;;
49502;SDS011;35409;48.776;9.204;2022-12-07T10:56:29;5.65;;;2.95;;
49502;SDS011;35409;48.776;9.204;2022-12-07T10:59:15;8.90;;;2.75;;
49502;SDS011;35409;48.776;9.204;2022-12-07T11:09:45;3.72;;;2.85;;
49502;SDS011;35409;48.776;9.204;2022-12-07T11:18:00;5.72;;;3.45;;
49502;SDS011;35409;48.776;9.204;2022-12-07T11:30:00;4.97;;;2.72;;
49502;SDS011;35409;48.776;9.204;2022-12-07T11:32:30;4.22;;;2.53;;
49502;SDS011;35409;48.776;9.204;2022-12-07T11:35:33;4.00;;;2.70;;
49502;SDS011;35409;48.776;9.204;2022-12-07T11:38:17;6.37;;;2.37;;
49502;SDS011;35409;48.776;9.204;2022-12-07T11:40:48;3.75;;;2.60;;
49502;SDS011;35409;48.776;9.204;2022-12-07T11:45:46;4.95;;;2.80;;
49502;SDS011;35409;48.776;9.204;2022-12-07T11:48:24;3.65;;;2.63;;
49502;SDS011;35409;48.776;9.204;2022-12-07T11:50:57;5.05;;;2.75;;
49502;SDS011;35409;48.776;9.204;2022-12-07T11:53:26;4.63;;;3.25;;
49502;SDS011;35409;48.776;9.204;2022-12-07T11:56:03;5.70;;;2.65;;
49502;SDS011;35409;48.776;9.204;2022-12-07T12:04:16;5.50;;;3.70;;
49502;SDS011;35409;48.776;9.204;2022-12-07T12:06:51;8.07;;;4.00;;
49502;SDS011;35409;48.776;9.204;2022-12-07T12:14:34;11.93;;;5.82;;
49502;SDS011;35409;48.776;9.204;2022-12-07T12:23:24;6.03;;;4.60;;
49502;SDS011;35409;48.776;9.204;2022-12-07T12:26:15;7.63;;;4.82;;
49502;SDS011;35409;48.776;9.204;2022-12-07T12:33:50;9.82;;;5.32;;
49502;SDS011;35409;48.776;9.204;2022-12-07T12:44:08;7.90;;;5.38;;
49502;SDS011;35409;48.776;9.204;2022-12-07T12:47:01;7.45;;;5.00;;
49502;SDS011;35409;48.776;9.204;2022-12-07T12:54:39;6.72;;;4.90;;
49502;SDS011;35409;48.776;9.204;2022-12-07T12:57:28;6.90;;;3.80;;
49502;SDS011;35409;48.776;9.204;2022-12-07T12:59:56;6.63;;;4.32;;
49502;SDS011;35409;48.776;9.204;2022-12-07T13:02:27;7.70;;;4.55;;
49502;SDS011;35409;48.776;9.204;2022-12-07T13:26:19;19.65;;;8.13;;
49502;SDS011;35409;48.776;9.204;2022-12-07T13:37:00;9.90;;;5.53;;
49502;SDS011;35409;48.776;9.204;2022-12-07T13:39:27;5.95;;;4.32;;
49502;SDS011;35409;48.776;9.204;2022-12-07T13:41:54;5.78;;;3.78;;
49502;SDS011;35409;48.776;9.204;2022-12-07T13:44:25;4.68;;;3.72;;
49502;SDS011;35409;48.776;9.204;2022-12-07T13:46:57;6.03;;;3.80;;
49502;SDS011;35409;48.776;9.204;2022-12-07T13:49:31;7.43;;;5.22;;
49502;SDS011;35409;48.776;9.204;2022-12-07T13:54:59;6.30;;;4.28;;
49502;SDS011;35409;48.776;9.204;2022-12-07T13:57:32;7.07;;;4.53;;
49502;SDS011;35409;48.776;9.204;2022-12-07T14:00:01;5.85;;;4.25;;
49502;SDS011;35409;48.776;9.204;2022-12-07T14:02:32;4.15;;;3.40;;
49502;SDS011;35409;48.776;9.204;2022-12-07T14:05:10;8.20;;;4.30;;
49502;SDS011;35409;48.776;9.204;2022-12-07T14:07:54;5.97;;;4.43;;
49502;SDS011;35409;48.776;9.204;2022-12-07T14:10:22;6.70;;;4.03;;
49502;SDS011;35409;48.776;9.204;2022-12-07T14:12:50;7.15;;;4.45;;
49502;SDS011;35409;48.776;9.204;2022-12-07T14:15:21;9.68;;;5.30;;
49502;SDS011;35409;48.776;9.204;2022-12-07T14:17:56;8.80;;;5.50;;
49502;SDS011;35409;48.776;9.204;2022-12-07T14:20:38;9.57;;;5.55;;
49502;SDS011;35409;48.776;9.204;2022-12-07T14:23:19;8.68;;;5.00;;
49502;SDS011;35409;48.776;9.204;2022-12-07T14:25:51;8.95;;;4.68;;
49502;SDS011;35409;48.776;9.204;2022-12-07T14:28:34;7.03;;;4.70;;
49502;SDS011;35409;48.776;9.204;2022-12-07T14:31:01;6.40;;;4.40;;
49502;SDS011;35409;48.776;9.204;2022-12-07T14:33:28;8.82;;;5.38;;
49502;SDS011;35409;48.776;9.204;2022-12-07T14:35:54;7.18;;;5.28;;
49502;SDS011;35409;48.776;9.204;2022-12-07T14:38:22;6.95;;;5.28;;
49502;SDS011;35409;48.776;9.204;2022-12-07T14:40:49;7.43;;;5.22;;
49502;SDS011;35409;48.776;9.204;2022-12-07T14:43:17;7.82;;;5.55;;
49502;SDS011;35409;48.776;9.204;2022-12-07T14:45:43;7.45;;;5.70;;
49502;SDS011;35409;48.776;9.204;2022-12-07T14:48:13;7.47;;;5.00;;
49502;SDS011;35409;48.776;9.204;2022-12-07T14:50:50;9.95;;;5.38;;
49502;SDS011;35409;48.776;9.204;2022-12-07T14:53:18;6.38;;;5.00;;
49502;SDS011;35409;48.776;9.204;2022-12-07T14:55:49;9.30;;;5.28;;
49502;SDS011;35409;48.776;9.204;2022-12-07T14:58:15;12.35;;;6.07;;
49502;SDS011;35409;48.776;9.204;2022-12-07T15:00:42;8.77;;;5.82;;
49502;SDS011;35409;48.776;9.204;2022-12-07T15:03:09;7.95;;;5.85;;
49502;SDS011;35409;48.776;9.204;2022-12-07T15:05:35;9.80;;;5.88;;
49502;SDS011;35409;48.776;9.204;2022-12-07T15:08:01;13.15;;;6.63;;
49502;SDS011;35409;48.776;9.204;2022-12-07T15:10:29;9.82;;;6.03;;
49502;SDS011;35409;48.776;9.204;2022-12-07T15:13:00;8.50;;;5.82;;
49502;SDS011;35409;48.776;9.204;2022-12-07T15:15:49;8.82;;;6.05;;
49502;SDS011;35409;48.776;9.204;2022-12-07T15:18:16;10.68;;;6.00;;
49502;SDS011;35409;48.776;9.204;2022-12-07T15:20:43;7.15;;;5.50;;
49502;SDS011;35409;48.776;9.204;2022-12-07T15:23:09;8.93;;;6.30;;
49502;SDS011;35409;48.776;9.204;2022-12-07T15:25:35;13.15;;;6.32;;
49502;SDS011;35409;48.776;9.204;2022-12-07T15:28:01;8.80;;;6.03;;
49502;SDS011;35409;48.776;9.204;2022-12-07T15:30:27;10.60;;;6.32;;
49502;SDS011;35409;48.776;9.204;2022-12-07T15:32:53;11.73;;;5.68;;
49502;SDS011;35409;48.776;9.204;2022-12-07T15:35:19;8.48;;;5.88;;
49502;SDS011;35409;48.776;9.204;2022-12-07T15:37:45;8.93;;;6.20;;
49502;SDS011;35409;48.776;9.204;2022-12-07T15:40:11;8.32;;;5.57;;
49502;SDS011;35409;48.776;9.204;2022-12-07T15:42:37;9.80;;;6.13;;
49502;SDS011;35409;48.776;9.204;2022-12-07T15:45:04;7.40;;;5.05;;
49502;SDS011;35409;48.776;9.204;2022-12-07T15:47:35;7.78;;;5.20;;
49502;SDS011;35409;48.776;9.204;2022-12-07T15:50:03;10.57;;;5.63;;
49502;SDS011;35409;48.776;9.204;2022-12-07T15:52:30;8.05;;;5.60;;
49502;SDS011;35409;48.776;9.204;2022-12-07T15:54:56;6.93;;;5.00;;
49502;SDS011;35409;48.776;9.204;2022-12-07T15:57:22;11.88;;;5.55;;
49502;SDS011;35409;48.776;9.204;2022-12-07T15:59:47;10.48;;;6.07;;
49502;SDS011;35409;48.776;9.204;2022-12-07T16:02:13;8.35;;;5.55;;
49502;SDS011;35409;48.776;9.204;2022-12-07T16:04:39;7.80;;;5.60;;
49502;SDS011;35409;48.776;9.204;2022-12-07T16:07:04;8.68;;;5.47;;
49502;SDS011;35409;48.776;9.204;2022-12-07T16:09:30;8.50;;;6.15;;
49502;SDS011;35409;48.776;9.204;2022-12-07T16:11:56;10.82;;;6.18;;
49502;SDS011;35409;48.776;9.204;2022-12-07T16:14:21;10.45;;;6.65;;
49502;SDS011;35409;48.776;9.204;2022-12-07T16:16:47;14.02;;;6.63;;
49502;SDS011;35409;48.776;9.204;2022-12-07T16:19:13;17.23;;;6.53;;
49502;SDS011;35409;48.776;9.204;2022-12-07T16:21:39;10.02;;;6.35;;
49502;SDS011;35409;48.776;9.204;2022-12-07T16:24:05;12.38;;;7.18;;
49502;SDS011;35409;48.776;9.204;2022-12-07T16:26:31;9.82;;;6.93;;
49502;SDS011;35409;48.776;9.204;2022-12-07T16:28:57;12.27;;;7.40;;
49502;SDS011;35409;48.776;9.204;2022-12-07T16:31:24;13.90;;;7.97;;
49502;SDS011;35409;48.776;9.204;2022-12-07T16:33:54;10.80;;;7.43;;
49502;SDS011;35409;48.776;9.204;2022-12-07T16:36:21;13.55;;;8.10;;
49502;SDS011;35409;48.776;9.204;2022-12-07T16:38:49;18.38;;;8.27;;
49502;SDS011;35409;48.776;9.204;2022-12-07T16:41:15;15.02;;;8.10;;
49502;SDS011;35409;48.776;9.204;2022-12-07T16:43:41;12.68;;;8.02;;
49502;SDS011;35409;48.776;9.204;2022-12-07T16:46:07;13.05;;;7.82;;
49502;SDS011;35409;48.776;9.204;2022-12-07T16:48:34;15.00;;;8.55;;
49502;SDS011;35409;48.776;9.204;2022-12-07T16:51:04;12.18;;;8.18;;
49502;SDS011;35409;48.776;9.204;2022-12-07T16:53:32;13.98;;;8.98;;
49502;SDS011;35409;48.776;9.204;2022-12-07T16:55:57;16.85;;;9.15;;
49502;SDS011;35409;48.776;9.204;2022-12-07T16:58:23;16.38;;;9.07;;
49502;SDS011;35409;48.776;9.204;2022-12-07T17:00:48;18.15;;;9.70;;
49502;SDS011;35409;48.776;9.204;2022-12-07T17:03:14;14.15;;;8.70;;
49502;SDS011;35409;48.776;9.204;2022-12-07T17:05:42;16.88;;;9.20;;
49502;SDS011;35409;48.776;9.204;2022-12-07T17:08:09;16.88;;;9.40;;